createdAt,value
2019-01-29T00:02:16.485Z,94.47
2019-01-29T00:04:46.467Z,94.63
2019-01-29T00:07:16.312Z,88.40
2019-01-29T00:09:46.262Z,78.07
2019-01-29T00:12:16.264Z,75.67
2019-01-29T00:14:46.237Z,78.27
2019-01-29T00:17:16.296Z,83.03
2019-01-29T00:19:46.185Z,84.87
2019-01-29T00:22:16.072Z,77.10
2019-01-29T00:24:46.096Z,74.97
2019-01-29T00:27:15.968Z,72.37
2019-01-29T00:29:45.819Z,71.97
2019-01-29T00:32:15.702Z,67.17
2019-01-29T00:34:45.596Z,61.00
2019-01-29T00:37:15.477Z,62.07
2019-01-29T00:39:45.374Z,59.33
2019-01-29T00:42:15.247Z,60.13
2019-01-29T00:44:45.161Z,58.17
2019-01-29T00:47:15.032Z,57.53
2019-01-29T00:49:44.925Z,53.73
2019-01-29T00:52:14.827Z,55.33
2019-01-29T00:54:44.792Z,58.90
2019-01-29T00:57:14.651Z,57.10
2019-01-29T00:59:44.493Z,59.13
2019-01-29T01:02:14.479Z,56.90
2019-01-29T01:04:44.359Z,64.67
2019-01-29T01:07:14.350Z,58.13
2019-01-29T01:09:44.218Z,59.53
2019-01-29T01:12:14.107Z,56.37
2019-01-29T01:14:44.018Z,56.43
2019-01-29T01:17:13.979Z,55.67
2019-01-29T01:19:43.869Z,56.67
2019-01-29T01:22:13.804Z,52.83
2019-01-29T01:24:43.647Z,57.47
2019-01-29T01:27:13.572Z,58.83
2019-01-29T01:29:43.488Z,57.70
2019-01-29T01:32:13.386Z,59.03
2019-01-29T01:34:43.398Z,58.43
2019-01-29T01:37:13.328Z,56.57
2019-01-29T01:39:43.218Z,58.50
2019-01-29T01:42:13.120Z,58.40
2019-01-29T01:44:42.990Z,57.03
2019-01-29T01:47:12.869Z,53.60
2019-01-29T01:49:42.802Z,52.13
2019-01-29T01:52:12.667Z,50.00
2019-01-29T01:54:42.565Z,49.33
2019-01-29T01:57:12.512Z,48.73
2019-01-29T01:59:42.428Z,49.63
2019-01-29T02:02:12.507Z,48.10
2019-01-29T02:04:42.368Z,48.73
2019-01-29T02:07:12.422Z,49.30
2019-01-29T02:09:42.340Z,50.47
2019-01-29T02:12:12.366Z,48.00
2019-01-29T02:14:45.125Z,49.43
2019-01-29T02:17:15.417Z,53.97
2019-01-29T02:19:45.335Z,51.70
2019-01-29T02:22:15.204Z,50.77
2019-01-29T02:24:45.102Z,54.13
2019-01-29T02:27:15.019Z,54.53
2019-01-29T02:29:44.881Z,55.83
2019-01-29T02:32:14.739Z,54.07
2019-01-29T02:34:44.653Z,55.43
2019-01-29T02:37:14.996Z,55.07
2019-01-29T02:39:44.883Z,56.63
2019-01-29T02:42:15.294Z,54.77
2019-01-29T02:44:45.198Z,56.23
2019-01-29T02:47:16.878Z,56.20
2019-01-29T02:49:46.753Z,60.60
2019-01-29T02:52:16.629Z,58.33
2019-01-29T02:54:46.664Z,57.07
2019-01-29T02:57:17.927Z,57.30
2019-01-29T02:59:47.811Z,57.83
2019-01-29T03:02:17.859Z,55.57
2019-01-29T03:04:47.736Z,56.53
2019-01-29T03:07:18.101Z,55.00
2019-01-29T03:09:48.152Z,53.57
2019-01-29T03:12:18.572Z,54.87
2019-01-29T03:14:48.470Z,54.73
2019-01-29T03:17:18.353Z,55.50
2019-01-29T03:19:48.351Z,52.33
2019-01-29T03:22:18.285Z,53.67
2019-01-29T03:24:48.515Z,51.23
2019-01-29T03:27:18.381Z,53.07
2019-01-29T03:29:48.259Z,53.47
2019-01-29T03:32:18.184Z,54.73
2019-01-29T03:34:48.150Z,53.07
2019-01-29T03:37:17.996Z,53.90
2019-01-29T03:39:47.923Z,52.17
2019-01-29T03:42:18.076Z,50.03
2019-01-29T03:44:48.051Z,49.87
2019-01-29T03:47:17.923Z,51.23
2019-01-29T03:49:47.802Z,48.60
2019-01-29T03:52:17.692Z,46.60
2019-01-29T03:54:48.113Z,46.73
2019-01-29T03:57:18.030Z,46.50
2019-01-29T03:59:47.956Z,45.63
2019-01-29T04:02:17.794Z,45.93
2019-01-29T04:04:47.636Z,45.17
2019-01-29T04:07:17.536Z,46.77
2019-01-29T04:09:47.502Z,44.00
2019-01-29T04:12:17.793Z,43.73
2019-01-29T04:14:47.648Z,44.07
2019-01-29T04:17:17.593Z,43.13
2019-01-29T04:19:47.765Z,42.77
2019-01-29T04:22:17.705Z,40.67
2019-01-29T04:24:47.591Z,42.50
2019-01-29T04:27:17.443Z,44.20
2019-01-29T04:29:47.300Z,45.27
2019-01-29T04:32:17.188Z,43.23
2019-01-29T04:34:47.052Z,44.07
2019-01-29T04:37:16.926Z,45.10
2019-01-29T04:39:47.395Z,43.47
2019-01-29T04:42:17.981Z,42.93
2019-01-29T04:44:47.853Z,44.53
2019-01-29T04:47:17.693Z,43.23
2019-01-29T04:49:47.576Z,44.37
2019-01-29T04:52:17.554Z,42.53
2019-01-29T04:54:47.439Z,44.40
2019-01-29T04:57:17.355Z,43.83
2019-01-29T04:59:47.191Z,42.90
2019-01-29T05:02:18.881Z,43.97
2019-01-29T05:04:48.743Z,43.07
2019-01-29T05:07:22.951Z,44.63
2019-01-29T05:09:54.204Z,44.33
2019-01-29T05:12:24.065Z,46.30
2019-01-29T05:14:54.816Z,46.17
2019-01-29T05:17:24.667Z,45.00
2019-01-29T05:19:54.573Z,48.03
2019-01-29T05:22:24.497Z,52.47
2019-01-29T05:24:54.335Z,51.20
2019-01-29T05:27:24.199Z,48.30
2019-01-29T05:29:54.126Z,45.53
2019-01-29T05:32:24.003Z,48.23
2019-01-29T05:34:53.964Z,45.63
2019-01-29T05:37:23.839Z,46.47
2019-01-29T05:39:53.885Z,42.50
2019-01-29T05:42:24.333Z,44.90
2019-01-29T05:44:54.342Z,47.67
2019-01-29T05:47:25.500Z,47.10
2019-01-29T05:49:55.421Z,44.13
2019-01-29T05:52:25.460Z,62.43
2019-01-29T05:54:55.812Z,49.53
2019-01-29T05:57:26.086Z,48.90
2019-01-29T05:59:55.995Z,65.10
2019-01-29T06:02:26.193Z,56.53
2019-01-29T06:04:56.114Z,54.57
2019-01-29T06:07:27.240Z,55.63
2019-01-29T06:09:57.160Z,47.33
2019-01-29T06:12:27.236Z,47.60
2019-01-29T06:14:58.725Z,48.80
2019-01-29T06:17:30.877Z,45.47
2019-01-29T06:20:00.783Z,45.47
2019-01-29T06:22:32.460Z,44.77
2019-01-29T06:25:03.381Z,45.40
2019-01-29T06:27:33.928Z,44.27
2019-01-29T06:30:03.920Z,49.40
2019-01-29T06:32:33.831Z,46.83
2019-01-29T06:35:03.712Z,46.23
2019-01-29T06:37:33.672Z,47.30
2019-01-29T06:40:03.539Z,43.47
2019-01-29T06:42:33.431Z,46.57
2019-01-29T06:45:03.483Z,45.03
2019-01-29T06:47:33.499Z,45.73
2019-01-29T06:50:03.384Z,46.37
2019-01-29T06:52:33.239Z,46.53
2019-01-29T06:55:03.181Z,45.57
2019-01-29T06:57:33.651Z,42.70
2019-01-29T07:00:03.627Z,46.87
2019-01-29T07:02:33.604Z,44.60
2019-01-29T07:05:03.507Z,43.47
2019-01-29T07:07:33.401Z,51.17
2019-01-29T07:10:03.520Z,49.47
2019-01-29T07:12:33.455Z,43.43
2019-01-29T07:15:03.423Z,47.63
2019-01-29T07:17:35.484Z,46.67
2019-01-29T07:20:08.794Z,44.67
2019-01-29T07:22:38.890Z,44.30
2019-01-29T07:25:10.495Z,45.70
2019-01-29T07:27:40.458Z,55.63
2019-01-29T07:30:13.675Z,57.60
2019-01-29T07:32:43.623Z,48.60
2019-01-29T07:35:13.798Z,55.53
2019-01-29T07:37:43.747Z,60.70
2019-01-29T07:40:13.941Z,49.13
2019-01-29T07:42:43.852Z,67.00
2019-01-29T07:45:14.499Z,53.27
2019-01-29T07:47:44.428Z,49.43
2019-01-29T07:50:14.527Z,48.47
2019-01-29T07:52:44.549Z,45.77
2019-01-29T07:55:14.653Z,46.03
2019-01-29T07:57:44.585Z,43.67
2019-01-29T08:00:14.937Z,44.17
2019-01-29T08:02:44.967Z,46.50
2019-01-29T08:05:14.985Z,48.77
2019-01-29T08:07:44.986Z,51.00
2019-01-29T08:10:17.996Z,50.03
2019-01-29T08:12:47.932Z,47.57
2019-01-29T08:15:18.089Z,47.60
2019-01-29T08:17:49.672Z,48.67
2019-01-29T08:20:19.784Z,51.83
2019-01-29T08:22:49.715Z,49.27
2019-01-29T08:25:19.815Z,48.17
2019-01-29T08:27:49.951Z,47.57
2019-01-29T08:30:19.974Z,46.27
2019-01-29T08:32:49.901Z,45.23
2019-01-29T08:35:19.906Z,44.80
2019-01-29T08:37:49.961Z,42.80
2019-01-29T08:40:19.944Z,43.70
2019-01-29T08:42:49.872Z,43.87
2019-01-29T08:45:19.908Z,44.17
2019-01-29T08:47:49.884Z,43.40
2019-01-29T08:50:22.177Z,43.60
2019-01-29T08:52:52.207Z,42.77
2019-01-29T08:55:22.712Z,40.53
2019-01-29T08:57:52.924Z,41.87
2019-01-29T09:00:23.178Z,41.80
2019-01-29T09:02:53.501Z,41.50
2019-01-29T09:05:23.458Z,41.50
2019-01-29T09:07:53.377Z,41.40
2019-01-29T09:10:23.486Z,43.20
2019-01-29T09:12:53.508Z,44.37
2019-01-29T09:15:23.580Z,41.60
2019-01-29T09:17:53.479Z,42.73
2019-01-29T09:20:23.584Z,43.77
2019-01-29T09:22:53.488Z,43.20
2019-01-29T09:25:23.491Z,45.27
2019-01-29T09:27:53.376Z,42.40
2019-01-29T09:30:24.487Z,43.27
2019-01-29T09:32:54.546Z,40.43
2019-01-29T09:35:24.464Z,39.97
2019-01-29T09:37:54.345Z,36.10
2019-01-29T09:40:24.402Z,37.93
2019-01-29T09:42:54.511Z,37.83
2019-01-29T09:45:24.698Z,36.27
2019-01-29T09:47:54.703Z,36.13
2019-01-29T09:50:24.828Z,37.37
2019-01-29T09:52:55.007Z,36.73
2019-01-29T09:55:29.426Z,35.80
2019-01-29T09:57:57.081Z,38.27
2019-01-29T10:00:35.014Z,36.63
2019-01-29T10:03:05.562Z,33.60
2019-01-29T10:05:35.726Z,32.40
2019-01-29T10:08:07.760Z,31.67
2019-01-29T10:10:37.650Z,32.93
2019-01-29T10:13:07.612Z,32.23
2019-01-29T10:15:37.973Z,30.97
2019-01-29T10:18:08.061Z,29.03
2019-01-29T10:20:38.175Z,29.17
2019-01-29T10:23:08.175Z,30.00
2019-01-29T10:25:38.285Z,30.80
2019-01-29T10:28:08.627Z,30.07
2019-01-29T10:30:38.611Z,31.23
2019-01-29T10:33:10.266Z,31.53
2019-01-29T10:35:41.410Z,31.13
2019-01-29T10:38:11.453Z,30.87
2019-01-29T10:40:42.137Z,31.93
2019-01-29T10:43:12.118Z,30.17
2019-01-29T10:45:42.009Z,31.57
2019-01-29T10:48:11.952Z,29.23
2019-01-29T10:50:41.913Z,31.50
2019-01-29T10:53:11.772Z,31.93
2019-01-29T10:55:47.534Z,30.23
2019-01-29T10:58:13.620Z,27.93
2019-01-29T11:00:44.247Z,26.30
2019-01-29T11:03:14.193Z,30.20
2019-01-29T11:05:44.066Z,29.30
2019-01-29T11:08:14.067Z,28.53
2019-01-29T11:10:44.129Z,26.83
2019-01-29T11:13:14.088Z,24.73
2019-01-29T11:15:44.685Z,25.50
2019-01-29T11:18:16.775Z,21.80
2019-01-29T11:20:46.837Z,23.10
2019-01-29T11:23:16.884Z,24.37
2019-01-29T11:25:55.458Z,24.70
2019-01-29T11:28:18.518Z,24.50
2019-01-29T11:30:49.085Z,22.60
2019-01-29T11:33:19.585Z,22.83
2019-01-29T11:35:49.518Z,22.30
2019-01-29T11:38:19.367Z,20.53
2019-01-29T11:40:49.380Z,20.33
2019-01-29T11:43:19.253Z,19.93
2019-01-29T11:45:52.103Z,20.23
2019-01-29T11:48:21.949Z,21.13
2019-01-29T11:50:51.767Z,23.47
2019-01-29T11:53:23.200Z,24.37
2019-01-29T11:55:53.083Z,25.27
2019-01-29T11:58:23.086Z,25.47
2019-01-29T12:01:10.056Z,24.27
2019-01-29T12:03:40.062Z,24.70
2019-01-29T12:06:10.011Z,24.73
2019-01-29T12:08:39.996Z,26.50
2019-01-29T12:11:09.905Z,26.67
2019-01-29T12:13:39.800Z,22.80
2019-01-29T12:16:09.842Z,20.67
2019-01-29T12:18:40.884Z,21.80
2019-01-29T12:21:10.776Z,26.97
2019-01-29T12:23:40.651Z,25.93
2019-01-29T12:26:13.252Z,23.33
2019-01-29T12:28:42.028Z,23.43
2019-01-29T12:31:12.180Z,19.40
2019-01-29T12:33:42.220Z,18.83
2019-01-29T12:36:12.082Z,18.77
2019-01-29T12:38:41.989Z,19.17
2019-01-29T12:41:14.970Z,22.03
2019-01-29T12:43:44.893Z,20.87
2019-01-29T12:46:14.907Z,19.40
2019-01-29T12:48:44.778Z,19.60
2019-01-29T12:51:24.907Z,22.60
2019-01-29T12:53:54.870Z,23.27
2019-01-29T12:56:25.680Z,20.23
2019-01-29T12:58:55.815Z,20.40
2019-01-29T13:01:25.742Z,22.03
2019-01-29T13:03:55.590Z,22.97
2019-01-29T13:06:25.485Z,23.37
2019-01-29T13:08:55.308Z,20.63
2019-01-29T13:11:25.147Z,22.57
2019-01-29T13:13:55.081Z,21.60
2019-01-29T13:16:24.988Z,23.23
2019-01-29T13:18:56.842Z,28.90
2019-01-29T13:21:26.729Z,24.43
2019-01-29T13:23:56.591Z,35.07
2019-01-29T13:26:30.085Z,35.07
2019-01-29T13:28:58.042Z,46.30
2019-01-29T13:31:28.056Z,23.33
2019-01-29T13:33:57.893Z,37.53
2019-01-29T13:36:27.814Z,23.40
2019-01-29T13:38:57.710Z,28.07
2019-01-29T13:41:27.578Z,20.03
2019-01-29T13:43:57.498Z,21.33
2019-01-29T13:46:27.359Z,20.80
2019-01-29T13:48:57.261Z,18.03
2019-01-29T13:51:27.333Z,19.57
2019-01-29T13:53:57.195Z,18.50
2019-01-29T13:56:27.122Z,17.80
2019-01-29T13:58:57.016Z,18.93
2019-01-29T14:01:27.006Z,46.63
2019-01-29T14:03:56.967Z,155.80
2019-01-29T14:06:26.859Z,104.63
2019-01-29T14:08:56.789Z,89.13
2019-01-29T14:11:28.092Z,53.30
2019-01-29T14:13:57.971Z,41.10
2019-01-29T14:16:27.845Z,31.47
2019-01-29T14:18:57.690Z,23.77
2019-01-29T14:21:27.622Z,21.03
2019-01-29T14:23:57.468Z,19.57
2019-01-29T14:26:27.319Z,20.93
2019-01-29T14:28:57.231Z,16.50
2019-01-29T14:31:27.087Z,19.50
2019-01-29T14:33:57.015Z,19.63
2019-01-29T14:36:27.854Z,19.80
2019-01-29T14:39:23.311Z,18.90
2019-01-29T14:41:53.282Z,24.50
2019-01-29T14:44:44.580Z,27.37
2019-01-29T14:47:14.414Z,20.67
2019-01-29T14:49:44.257Z,35.17
2019-01-29T14:52:14.249Z,19.20
2019-01-29T14:54:44.105Z,24.13
2019-01-29T14:57:13.989Z,23.87
2019-01-29T14:59:43.845Z,38.83
2019-01-29T15:02:13.689Z,27.40
2019-01-29T15:04:43.589Z,25.30
2019-01-29T15:07:13.422Z,20.17
2019-01-29T15:09:43.402Z,19.47
2019-01-29T15:12:13.313Z,23.47
2019-01-29T15:14:43.342Z,25.20
2019-01-29T15:17:47.391Z,18.47
2019-01-29T15:20:17.238Z,17.07
2019-01-29T15:22:47.377Z,17.50
2019-01-29T15:25:17.831Z,18.07
2019-01-29T15:27:48.109Z,17.50
2019-01-29T15:30:23.855Z,16.43
2019-01-29T15:32:53.858Z,16.33
2019-01-29T15:35:23.806Z,16.30
2019-01-29T15:37:54.732Z,17.93
2019-01-29T15:40:24.835Z,14.87
2019-01-29T15:42:56.136Z,16.67
2019-01-29T15:45:26.478Z,15.20
2019-01-29T15:47:56.314Z,16.43
2019-01-29T15:50:26.174Z,17.13
2019-01-29T15:52:56.258Z,18.07
2019-01-29T15:55:26.194Z,18.27
2019-01-29T15:57:56.265Z,18.80
2019-01-29T16:00:28.501Z,18.37
2019-01-29T16:02:58.482Z,17.73
2019-01-29T16:05:28.874Z,20.37
2019-01-29T16:07:58.798Z,21.13
2019-01-29T16:10:39.161Z,20.97
2019-01-29T16:13:03.005Z,20.37
2019-01-29T16:15:33.103Z,18.93
2019-01-29T16:18:02.975Z,23.80
2019-01-29T16:20:32.817Z,28.47
2019-01-29T16:23:02.679Z,23.77
2019-01-29T16:25:32.760Z,26.67
2019-01-29T16:28:02.712Z,22.20
2019-01-29T16:30:32.784Z,26.10
2019-01-29T16:33:02.686Z,23.33
2019-01-29T16:35:33.212Z,24.20
2019-01-29T16:38:03.054Z,24.50
2019-01-29T16:40:34.321Z,29.77
2019-01-29T16:43:04.250Z,25.80
2019-01-29T16:45:34.409Z,29.57
2019-01-29T16:48:06.028Z,29.87
2019-01-29T16:50:36.619Z,32.63
2019-01-29T16:53:07.161Z,26.60
2019-01-29T16:55:37.148Z,31.83
2019-01-29T16:58:07.998Z,35.17
2019-01-29T17:00:38.149Z,38.83
2019-01-29T17:03:09.465Z,40.67
2019-01-29T17:05:39.530Z,43.67
2019-01-29T17:08:09.580Z,37.43
2019-01-29T17:10:40.157Z,43.83
2019-01-29T17:13:09.997Z,37.67
2019-01-29T17:15:40.122Z,33.33
2019-01-29T17:18:10.091Z,32.23
2019-01-29T17:20:41.346Z,29.77
2019-01-29T17:23:11.741Z,32.27
2019-01-29T17:25:41.679Z,31.37
2019-01-29T17:28:11.867Z,34.70
2019-01-29T17:30:46.833Z,33.80
2019-01-29T17:33:19.810Z,31.77
2019-01-29T17:35:49.826Z,34.57
2019-01-29T17:38:19.763Z,36.80
2019-01-29T17:40:49.739Z,34.77
2019-01-29T17:43:19.891Z,28.80
2019-01-29T17:45:50.737Z,32.30
2019-01-29T17:48:20.727Z,33.67
2019-01-29T17:50:54.162Z,31.53
2019-01-29T17:53:27.705Z,30.07
2019-01-29T17:55:59.420Z,26.67
2019-01-29T17:58:29.441Z,23.13
2019-01-29T18:01:03.268Z,26.57
2019-01-29T18:03:34.583Z,27.50
2019-01-29T18:06:05.275Z,29.40
2019-01-29T18:08:35.183Z,26.80
2019-01-29T18:11:05.175Z,26.03
2019-01-29T18:13:35.023Z,27.17
2019-01-29T18:16:06.288Z,29.07
2019-01-29T18:18:36.151Z,28.00
2019-01-29T18:21:06.154Z,25.87
2019-01-29T18:23:36.108Z,25.93
2019-01-29T18:26:06.172Z,32.73
2019-01-29T18:28:36.664Z,30.13
2019-01-29T18:31:06.699Z,33.97
2019-01-29T18:33:37.332Z,29.67
2019-01-29T18:36:07.972Z,33.07
2019-01-29T18:38:38.580Z,35.77
2019-01-29T18:41:08.595Z,35.97
2019-01-29T18:43:38.510Z,26.30
2019-01-29T18:46:09.971Z,25.90
2019-01-29T18:48:40.660Z,31.10
2019-01-29T18:51:17.710Z,24.00
2019-01-29T18:53:48.909Z,23.23
2019-01-29T18:56:18.847Z,23.83
2019-01-29T18:58:50.292Z,26.23
2019-01-29T19:01:20.392Z,30.20
2019-01-29T19:03:50.390Z,26.77
2019-01-29T19:06:20.304Z,24.83
2019-01-29T19:08:50.236Z,26.07
2019-01-29T19:11:22.630Z,29.47
2019-01-29T19:13:53.588Z,26.33
2019-01-29T19:16:23.625Z,31.10
2019-01-29T19:18:53.514Z,68.03
2019-01-29T19:21:23.670Z,57.67
2019-01-29T19:23:53.513Z,37.80
2019-01-29T19:26:23.451Z,28.23
2019-01-29T19:28:54.293Z,39.63
2019-01-29T19:31:24.384Z,41.63
2019-01-29T19:33:54.274Z,36.73
2019-01-29T19:36:24.218Z,40.70
2019-01-29T19:38:54.148Z,42.90
2019-01-29T19:41:24.199Z,45.57
2019-01-29T19:43:54.088Z,54.43
2019-01-29T19:46:24.063Z,68.50
2019-01-29T19:48:53.961Z,75.90
2019-01-29T19:51:25.934Z,72.53
2019-01-29T19:53:56.576Z,91.93
2019-01-29T19:56:26.514Z,69.90
2019-01-29T19:58:56.515Z,65.03
2019-01-29T20:01:26.632Z,69.50
2019-01-29T20:03:57.351Z,88.47
2019-01-29T20:06:27.283Z,88.23
2019-01-29T20:08:57.183Z,80.67
2019-01-29T20:11:28.654Z,91.57
2019-01-29T20:13:58.547Z,85.50
2019-01-29T20:16:28.463Z,60.77
2019-01-29T20:18:58.377Z,63.37
2019-01-29T20:21:28.344Z,61.03
2019-01-29T20:23:58.338Z,55.60
2019-01-29T20:26:28.421Z,54.10
2019-01-29T20:28:58.600Z,43.70
2019-01-29T20:31:28.601Z,42.73
2019-01-29T20:33:58.597Z,55.20
2019-01-29T20:36:28.770Z,63.73
2019-01-29T20:38:58.787Z,49.30
2019-01-29T20:41:28.727Z,42.30
2019-01-29T20:44:02.134Z,41.60
2019-01-29T20:46:32.088Z,49.00
2019-01-29T20:49:02.143Z,48.23
2019-01-29T20:51:32.369Z,37.33
2019-01-29T20:54:02.647Z,36.70
2019-01-29T20:56:33.942Z,34.70
2019-01-29T20:59:04.738Z,32.87
2019-01-29T21:01:35.304Z,36.77
2019-01-29T21:04:05.426Z,35.23
2019-01-29T21:06:35.308Z,34.70
2019-01-29T21:09:09.098Z,40.77
2019-01-29T21:11:41.792Z,38.47
2019-01-29T21:14:12.949Z,38.27
2019-01-29T21:16:44.486Z,32.00
2019-01-29T21:19:17.286Z,24.93
2019-01-29T21:21:47.191Z,28.07
2019-01-29T21:24:18.252Z,81.93
2019-01-29T21:26:49.257Z,79.10
2019-01-29T21:29:19.227Z,71.00
2019-01-29T21:31:49.517Z,36.37
2019-01-29T21:34:19.379Z,37.97
2019-01-29T21:36:52.328Z,46.33
2019-01-29T21:39:22.554Z,51.53
2019-01-29T21:41:53.188Z,36.67
2019-01-29T21:44:24.239Z,31.07
2019-01-29T21:46:55.226Z,41.57
2019-01-29T21:49:26.232Z,34.17
2019-01-29T21:51:57.433Z,26.37
2019-01-29T21:54:27.321Z,26.07
2019-01-29T21:56:58.316Z,27.10
2019-01-29T21:59:28.487Z,29.57
2019-01-29T22:01:59.223Z,57.90
2019-01-29T22:04:33.397Z,49.47
2019-01-29T22:07:04.571Z,31.17
2019-01-29T22:09:34.477Z,28.70
2019-01-29T22:12:05.096Z,34.30
2019-01-29T22:14:35.326Z,27.90
2019-01-29T22:17:05.201Z,28.70
2019-01-29T22:19:36.745Z,25.97
2019-01-29T22:22:07.744Z,28.13
2019-01-29T22:24:39.627Z,27.50
2019-01-29T22:27:11.295Z,24.53
2019-01-29T22:29:43.690Z,28.70
2019-01-29T22:32:15.334Z,33.10
2019-01-29T22:34:45.919Z,61.13
2019-01-29T22:37:15.792Z,58.70
2019-01-29T22:39:45.750Z,41.17
2019-01-29T22:42:15.799Z,34.40
2019-01-29T22:44:45.724Z,26.63
2019-01-29T22:47:15.673Z,25.23
2019-01-29T22:49:45.536Z,28.50
2019-01-29T22:52:16.842Z,24.17
2019-01-29T22:54:46.707Z,25.07
2019-01-29T22:57:17.982Z,26.43
2019-01-29T22:59:47.853Z,28.93
2019-01-29T23:02:17.835Z,49.63
2019-01-29T23:04:48.690Z,70.73
2019-01-29T23:07:27.656Z,52.77
2019-01-29T23:09:57.541Z,31.77
2019-01-29T23:12:27.547Z,28.37
2019-01-29T23:14:57.554Z,30.63
2019-01-29T23:17:27.470Z,29.73
2019-01-29T23:19:57.362Z,27.57
2019-01-29T23:22:27.400Z,29.50
2019-01-29T23:24:57.305Z,31.93
2019-01-29T23:27:27.154Z,36.90
2019-01-29T23:29:57.038Z,35.47
2019-01-29T23:32:26.931Z,31.27
2019-01-29T23:34:56.865Z,36.30
2019-01-29T23:37:26.744Z,40.93
2019-01-29T23:39:56.654Z,32.17
2019-01-29T23:42:28.364Z,32.13
2019-01-29T23:44:58.746Z,51.50
2019-01-29T23:47:28.625Z,48.30
2019-01-29T23:49:59.168Z,35.53
2019-01-29T23:52:30.023Z,36.83
2019-01-29T23:54:59.924Z,28.80
2019-01-29T23:57:29.828Z,30.50
